Bunker Hill, Ohio
Current Conditions -  °F | °C
As of 4:56 AM on Thursday 27 Nov 2014 (Local Time) from KBJJ Reporting Station
Light Snow Light Snow  
Wind Chill: 23°   Ceiling: 700
Heat Index: 31°   Visibility: 4mi
Dew Point: 29°   Wind: 8mph
Humidity: 92%   Direction: 300°WNW
Pressure: 30.02"   Gusts: NA
Location:  40.5444°N, 81.851°W
Report Text: KBJJ 270956Z AUTO 30007KT 4SM -SN BR OVC007 M01/M02 A3002 RMK AO2 SNB53 SLP176 P0000 T10061017 TSNO
Loading
Personal Weather Stations






























Interactive Weather Map New forecast layout! Learn more

10-Day Weather Forecast

Advertisements
Track Severe Weather on mobile